createdAt,value
2022-08-20T00:00:23.866Z,101476.53
2022-08-20T00:02:53.627Z,101473.78
2022-08-20T00:05:24.650Z,101468.59
2022-08-20T00:07:52.714Z,101466.16
2022-08-20T00:10:21.161Z,101460.69
2022-08-20T00:12:51.777Z,101461.78
2022-08-20T00:15:22.266Z,101446.47
2022-08-20T00:17:50.596Z,101453.03
2022-08-20T00:20:21.283Z,101451.41
2022-08-20T00:22:49.052Z,101452.50
2022-08-20T00:25:18.392Z,101451.69
2022-08-20T00:27:46.414Z,101456.34
2022-08-20T00:30:16.325Z,101448.41
2022-08-20T00:32:45.775Z,101462.09
2022-08-20T00:35:15.250Z,101457.72
2022-08-20T00:37:43.002Z,101452.00
2022-08-20T00:40:22.544Z,101460.72
2022-08-20T00:42:53.334Z,101452.00
2022-08-20T00:45:22.555Z,101453.91
2022-08-20T00:47:51.145Z,101453.91
2022-08-20T00:50:24.369Z,101454.19
2022-08-20T00:52:53.899Z,101454.19
2022-08-20T00:55:27.494Z,101458.03
2022-08-20T00:58:02.988Z,101462.97
2022-08-20T01:00:35.737Z,101462.69
2022-08-20T01:03:03.819Z,101461.03
2022-08-20T01:05:31.520Z,101461.03
2022-08-20T01:07:59.597Z,101462.16
2022-08-20T01:10:30.467Z,101463.25
2022-08-20T01:12:59.976Z,101452.31
2022-08-20T01:15:30.994Z,101458.06
2022-08-20T01:18:03.225Z,101455.31
2022-08-20T01:20:34.783Z,101452.59
2022-08-20T01:23:31.104Z,101449.31
2022-08-20T01:26:05.935Z,101455.31
2022-08-20T01:28:41.602Z,101456.41
2022-08-20T01:31:11.955Z,101458.34
2022-08-20T01:33:40.240Z,101452.59
2022-08-20T01:36:11.442Z,101454.78
2022-08-20T01:38:41.377Z,101449.59
2022-08-20T01:41:35.070Z,101450.41
2022-08-20T01:44:03.164Z,101451.50
2022-08-20T01:46:36.805Z,101456.16
2022-08-20T01:49:16.444Z,101451.78
2022-08-20T01:51:51.875Z,101453.72
2022-08-20T01:54:19.802Z,101459.19
2022-08-20T01:56:58.586Z,101458.66
2022-08-20T01:59:26.494Z,101455.09
2022-08-20T02:01:55.004Z,101447.97
2022-08-20T02:04:23.155Z,101458.09
2022-08-20T02:06:56.195Z,101450.75
2022-08-20T02:09:26.839Z,101459.47
2022-08-20T02:11:57.529Z,101458.66
2022-08-20T02:14:25.414Z,101461.69
2022-08-20T02:16:55.010Z,101459.22
2022-08-20T02:19:26.693Z,101453.50
2022-08-20T02:21:58.091Z,101460.31
2022-08-20T02:24:25.978Z,101463.34
2022-08-20T02:26:56.037Z,101465.25
2022-08-20T02:29:26.119Z,101458.16
2022-08-20T02:32:24.226Z,101450.22
2022-08-20T02:34:42.194Z,101449.44
2022-08-20T02:37:10.719Z,101461.44
2022-08-20T02:39:38.441Z,101468.84
2022-08-20T02:42:09.325Z,101469.94
2022-08-20T02:44:37.055Z,101471.03
2022-08-20T02:47:05.399Z,101466.66
2022-08-20T02:49:34.947Z,101480.34
2022-08-20T02:52:02.637Z,101474.31
2022-08-20T02:54:30.344Z,101473.50
2022-08-20T02:56:58.022Z,101474.59
2022-08-20T02:59:27.058Z,101472.97
2022-08-20T03:01:59.334Z,101467.50
2022-08-20T03:04:28.439Z,101471.34
2022-08-20T03:06:56.289Z,101477.91
2022-08-20T03:09:24.059Z,101480.63
2022-08-20T03:11:52.249Z,101481.19
2022-08-20T03:14:19.982Z,101484.19
2022-08-20T03:16:49.009Z,101481.47
2022-08-20T03:19:16.890Z,101485.03
2022-08-20T03:21:45.056Z,101482.56
2022-08-20T03:24:12.980Z,101482.56
2022-08-20T03:26:40.858Z,101489.13
2022-08-20T03:29:08.570Z,101480.94
2022-08-20T03:31:36.311Z,101492.69
2022-08-20T03:34:05.610Z,101483.94
2022-08-20T03:36:33.499Z,101484.75
2022-08-20T03:39:04.334Z,101487.50
2022-08-20T03:41:32.542Z,101493.78
2022-08-20T03:44:00.250Z,101497.63
2022-08-20T03:46:28.011Z,101495.69
2022-08-20T03:48:59.954Z,101502.81
2022-08-20T03:51:30.588Z,101504.19
2022-08-20T03:53:58.939Z,101499.25
2022-08-20T03:56:27.077Z,101494.06
2022-08-20T03:58:55.502Z,101500.09
2022-08-20T04:01:45.855Z,101500.34
2022-08-20T04:04:12.539Z,101502.28
2022-08-20T04:06:42.772Z,101509.94
2022-08-20T04:09:11.829Z,101508.31
2022-08-20T04:11:40.287Z,101517.59
2022-08-20T04:14:08.141Z,101511.31
2022-08-20T04:16:37.777Z,101505.31
2022-08-20T04:19:06.247Z,101513.75
2022-08-20T04:21:35.266Z,101517.56
2022-08-20T04:24:06.469Z,101519.50
2022-08-20T04:26:36.286Z,101515.94
2022-08-20T04:29:04.394Z,101518.13
2022-08-20T04:31:34.114Z,101510.75
2022-08-20T04:34:02.964Z,101516.50
2022-08-20T04:36:30.882Z,101516.75
2022-08-20T04:38:58.574Z,101521.41
2022-08-20T04:41:26.662Z,101528.78
2022-08-20T04:43:56.251Z,101528.25
2022-08-20T04:46:25.950Z,101539.19
2022-08-20T04:48:54.299Z,101532.63
2022-08-20T04:51:22.757Z,101538.63
2022-08-20T04:53:53.743Z,101546.84
2022-08-20T04:56:23.595Z,101545.75
2022-08-20T04:58:54.355Z,101555.31
2022-08-20T05:01:23.766Z,101552.03
2022-08-20T05:03:54.634Z,101559.41
2022-08-20T05:06:25.021Z,101558.59
2022-08-20T05:08:53.373Z,101558.88
2022-08-20T05:11:34.652Z,101558.06
2022-08-20T05:14:07.974Z,101565.44
2022-08-20T05:16:38.841Z,101569.25
2022-08-20T05:19:08.590Z,101562.69
2022-08-20T05:21:36.886Z,101566.81
2022-08-20T05:24:05.365Z,101570.63
2022-08-20T05:26:34.188Z,101566.25
2022-08-20T05:29:02.678Z,101564.34
2022-08-20T05:31:33.600Z,101569.81
2022-08-20T05:34:02.442Z,101563.53
2022-08-20T05:36:30.777Z,101562.69
2022-08-20T05:38:58.475Z,101564.63
2022-08-20T05:41:29.228Z,101568.44
2022-08-20T05:43:57.948Z,101574.19
2022-08-20T05:46:25.709Z,101576.09
2022-08-20T05:48:54.758Z,101574.19
2022-08-20T05:51:22.445Z,101572.53
2022-08-20T05:53:50.329Z,101578.00
2022-08-20T05:56:18.038Z,101576.38
2022-08-20T05:58:45.748Z,101579.91
2022-08-20T06:01:13.486Z,101581.00
2022-08-20T06:03:58.754Z,101587.28
2022-08-20T06:06:44.755Z,101588.38
2022-08-20T06:09:15.305Z,101595.75
2022-08-20T06:11:43.048Z,101598.50
2022-08-20T06:14:10.747Z,101587.03
2022-08-20T06:16:38.726Z,101588.13
2022-08-20T06:19:07.033Z,101589.22
2022-08-20T06:21:41.062Z,101600.13
2022-08-20T06:24:09.254Z,101591.13
2022-08-20T06:26:37.874Z,101584.31
2022-08-20T06:29:07.113Z,101589.47
2022-08-20T06:31:39.806Z,101587.84
2022-08-20T06:34:08.312Z,101583.19
2022-08-20T06:36:36.027Z,101580.72
2022-08-20T06:39:05.324Z,101589.75
2022-08-20T06:41:36.297Z,101586.19
2022-08-20T06:44:06.514Z,101599.84
2022-08-20T06:46:34.507Z,101588.09
2022-08-20T06:49:03.493Z,101598.22
2022-08-20T06:51:31.477Z,101597.41
2022-08-20T06:53:59.540Z,101593.84
2022-08-20T06:56:28.619Z,101587.28
2022-08-20T06:58:56.279Z,101596.59
2022-08-20T07:01:24.346Z,101593.84
2022-08-20T07:03:55.520Z,101596.88
2022-08-20T07:06:25.457Z,101603.97
2022-08-20T07:08:53.739Z,101595.50
2022-08-20T07:11:27.249Z,101603.97
2022-08-20T07:13:58.230Z,101607.00
2022-08-20T07:16:26.365Z,101607.00
2022-08-20T07:18:54.471Z,101607.00
2022-08-20T07:21:22.181Z,101610.53
2022-08-20T07:23:50.035Z,101610.53
2022-08-20T07:26:18.163Z,101617.63
2022-08-20T07:28:46.293Z,101617.63
2022-08-20T07:31:34.875Z,101617.09
2022-08-20T07:34:02.966Z,101628.53
2022-08-20T07:36:31.142Z,101619.56
2022-08-20T07:38:58.882Z,101631.28
2022-08-20T07:41:26.678Z,101631.28
2022-08-20T07:43:54.506Z,101631.28
2022-08-20T07:46:23.538Z,101634.00
2022-08-20T07:48:58.919Z,101634.00
2022-08-20T07:51:26.759Z,101637.88
2022-08-20T07:53:54.754Z,101641.41
2022-08-20T07:56:24.719Z,101641.41
2022-08-20T07:58:55.428Z,101649.63
2022-08-20T08:01:29.495Z,101655.06
2022-08-20T08:03:57.850Z,101651.53
2022-08-20T08:06:30.467Z,101656.69
2022-08-20T08:09:03.378Z,101651.53
2022-08-20T08:11:33.732Z,101656.69
2022-08-20T08:14:01.788Z,101648.50
2022-08-20T08:16:32.468Z,101649.31
2022-08-20T08:19:01.249Z,101653.69
2022-08-20T08:21:30.002Z,101660.25
2022-08-20T08:23:58.251Z,101656.69
2022-08-20T08:26:28.651Z,101664.88
2022-08-20T08:28:56.728Z,101659.41
2022-08-20T08:31:25.630Z,101659.16
2022-08-20T08:33:54.798Z,101664.63
2022-08-20T08:36:22.469Z,101668.16
2022-08-20T08:38:50.240Z,101667.34
2022-08-20T08:41:20.678Z,101670.06
2022-08-20T08:43:50.692Z,101668.75
2022-08-20T08:46:22.490Z,101668.16
2022-08-20T08:48:53.583Z,101672.00
2022-08-20T08:51:31.078Z,101676.09
2022-08-20T08:54:03.441Z,101676.91
2022-08-20T08:56:35.623Z,101678.28
2022-08-20T08:59:07.733Z,101677.47
2022-08-20T09:01:56.622Z,101681.56
2022-08-20T09:04:30.403Z,101678.56
2022-08-20T09:07:00.454Z,101678.28
2022-08-20T09:09:32.529Z,101678.28
2022-08-20T09:12:05.507Z,101683.22
2022-08-20T09:14:33.291Z,101679.41
2022-08-20T09:17:01.043Z,101681.03
2022-08-20T09:19:28.761Z,101676.13
2022-08-20T09:21:56.511Z,101676.66
2022-08-20T09:24:25.913Z,101678.31
2022-08-20T09:26:53.625Z,101673.41
2022-08-20T09:29:21.309Z,101665.47
2022-08-20T09:31:49.014Z,101675.03
2022-08-20T09:34:16.721Z,101671.22
2022-08-20T09:36:44.374Z,101673.66
2022-08-20T09:39:12.554Z,101674.50
2022-08-20T09:41:41.711Z,101673.41
2022-08-20T09:44:09.407Z,101666.84
2022-08-20T09:46:37.439Z,101671.22
2022-08-20T09:49:05.096Z,101665.75
2022-08-20T09:51:34.851Z,101664.66
2022-08-20T09:54:06.616Z,101664.66
2022-08-20T09:56:35.732Z,101664.94
2022-08-20T09:59:04.874Z,101673.69
2022-08-20T10:01:33.210Z,101672.59
2022-08-20T10:04:00.944Z,101673.41
2022-08-20T10:06:28.641Z,101678.63
2022-08-20T10:08:56.364Z,101673.97
2022-08-20T10:11:24.135Z,101672.06
2022-08-20T10:13:52.711Z,101666.34
2022-08-20T10:16:21.716Z,101676.19
2022-08-20T10:18:49.460Z,101670.72
2022-08-20T10:21:17.430Z,101671.25
2022-08-20T10:23:45.335Z,101673.72
2022-08-20T10:26:15.068Z,101677.81
2022-08-20T10:28:42.712Z,101673.72
2022-08-20T10:31:11.825Z,101667.16
2022-08-20T10:33:42.088Z,101670.44
2022-08-20T10:36:11.406Z,101673.72
2022-08-20T10:38:39.154Z,101666.06
2022-08-20T10:41:07.156Z,101674.81
2022-08-20T10:43:35.172Z,101674.53
2022-08-20T10:46:03.340Z,101680.56
2022-08-20T10:48:31.143Z,101678.34
2022-08-20T10:51:00.194Z,101680.00
2022-08-20T10:53:27.973Z,101679.72
2022-08-20T10:55:56.310Z,101680.00
2022-08-20T10:58:24.183Z,101673.44
2022-08-20T11:00:52.151Z,101676.72
2022-08-20T11:03:20.225Z,101677.81
2022-08-20T11:05:48.622Z,101674.25
2022-08-20T11:08:33.310Z,101681.63
2022-08-20T11:11:01.685Z,101671.75
2022-08-20T11:13:29.367Z,101675.88
2022-08-20T11:15:57.049Z,101674.50
2022-08-20T11:18:24.743Z,101670.09
2022-08-20T11:20:52.417Z,101671.47
2022-08-20T11:23:21.647Z,101675.56
2022-08-20T11:25:50.187Z,101679.66
2022-08-20T11:28:30.932Z,101674.72
2022-08-20T11:31:00.313Z,101679.94
2022-08-20T11:33:28.123Z,101682.66
2022-08-20T11:35:55.791Z,101682.66
2022-08-20T11:38:24.813Z,101685.41
2022-08-20T11:40:52.566Z,101679.66
2022-08-20T11:43:20.307Z,101687.31
2022-08-20T11:45:51.523Z,101691.44
2022-08-20T11:48:19.495Z,101689.25
2022-08-20T11:50:47.524Z,101683.50
2022-08-20T11:53:15.457Z,101673.34
2022-08-20T11:55:44.995Z,101686.50
2022-08-20T11:58:13.544Z,101673.63
2022-08-20T12:00:41.444Z,101669.22
2022-08-20T12:03:10.435Z,101675.53
2022-08-20T12:05:40.257Z,101668.66
2022-08-20T12:08:08.395Z,101666.47
2022-08-20T12:10:36.146Z,101662.63
2022-08-20T12:13:05.774Z,101665.91
2022-08-20T12:15:33.625Z,101665.63
2022-08-20T12:18:01.813Z,101670.00
2022-08-20T12:20:29.479Z,101669.72
2022-08-20T12:22:58.910Z,101673.81
2022-08-20T12:25:26.966Z,101672.44
2022-08-20T12:27:54.784Z,101663.94
2022-08-20T12:30:25.247Z,101659.56
2022-08-20T12:32:52.977Z,101659.00
2022-08-20T12:35:20.929Z,101663.09
2022-08-20T12:37:48.901Z,101664.72
2022-08-20T12:40:24.470Z,101658.97
2022-08-20T12:43:00.345Z,101642.03
2022-08-20T12:45:29.538Z,101669.91
2022-08-20T12:48:02.539Z,101658.66
2022-08-20T12:50:31.802Z,101662.16
2022-08-20T12:52:59.866Z,101658.03
2022-08-20T12:55:28.012Z,101663.78
2022-08-20T12:57:59.431Z,101661.84
2022-08-20T13:00:30.285Z,101650.59
2022-08-20T13:03:01.574Z,101651.97
2022-08-20T13:05:30.058Z,101639.63
2022-08-20T13:07:58.573Z,101653.00
2022-08-20T13:10:28.186Z,101646.97
2022-08-20T13:12:56.275Z,101639.56
2022-08-20T13:15:25.339Z,101651.84
2022-08-20T13:17:55.317Z,101648.00
2022-08-20T13:20:25.642Z,101653.22
2022-08-20T13:22:59.418Z,101643.34
2022-08-20T13:25:27.167Z,101641.97
2022-08-20T13:27:58.202Z,101641.97
2022-08-20T13:30:26.352Z,101645.78
2022-08-20T13:32:55.692Z,101636.16
2022-08-20T13:35:23.707Z,101640.25
2022-08-20T13:37:51.814Z,101631.75
2022-08-20T13:40:19.926Z,101637.72
2022-08-20T13:42:47.835Z,101628.09
2022-08-20T13:45:15.661Z,101625.06
2022-08-20T13:47:43.679Z,101630.78
2022-08-20T13:50:16.502Z,101633.78
2022-08-20T13:52:44.602Z,101620.31
2022-08-20T13:55:17.004Z,101629.34
2022-08-20T13:57:46.063Z,101627.16
2022-08-20T14:00:17.761Z,101624.13
2022-08-20T14:02:45.970Z,101628.22
2022-08-20T14:05:17.277Z,101629.84
2022-08-20T14:07:47.191Z,101636.16
2022-08-20T14:10:19.025Z,101628.22
2022-08-20T14:12:48.171Z,101627.38
2022-08-20T14:15:16.464Z,101631.25
2022-08-20T14:17:51.298Z,101630.13
2022-08-20T14:20:24.354Z,101627.09
2022-08-20T14:22:52.047Z,101626.81
2022-08-20T14:25:22.383Z,101630.66
2022-08-20T14:27:50.661Z,101625.19
2022-08-20T14:30:20.909Z,101629.84
2022-08-20T14:32:48.696Z,101633.41
2022-08-20T14:35:16.683Z,101633.13
2022-08-20T14:37:49.451Z,101631.19
2022-08-20T14:40:19.104Z,101622.69
2022-08-20T14:42:51.495Z,101628.16
2022-08-20T14:45:21.067Z,101624.06
2022-08-20T14:47:53.792Z,101635.88
2022-08-20T14:50:25.054Z,101633.41
2022-08-20T14:52:54.904Z,101640.00
2022-08-20T14:55:24.602Z,101630.66
2022-08-20T14:57:52.287Z,101634.22
2022-08-20T15:00:23.490Z,101636.97
2022-08-20T15:02:51.289Z,101637.25
2022-08-20T15:05:19.076Z,101633.97
2022-08-20T15:07:51.763Z,101633.16
2022-08-20T15:10:25.253Z,101626.28
2022-08-20T15:12:53.164Z,101626.56
2022-08-20T15:15:21.580Z,101620.78
2022-08-20T15:17:51.516Z,101625.47
2022-08-20T15:20:21.614Z,101621.66
2022-08-20T15:22:50.960Z,101627.69
2022-08-20T15:25:22.027Z,101630.41
2022-08-20T15:27:52.098Z,101641.41
2022-08-20T15:30:22.119Z,101631.28
2022-08-20T15:32:54.643Z,101632.34
2022-08-20T15:35:23.566Z,101637.31
2022-08-20T15:37:54.684Z,101625.81
2022-08-20T15:40:28.287Z,101618.72
2022-08-20T15:42:57.852Z,101635.13
2022-08-20T15:45:26.416Z,101626.09
2022-08-20T15:47:56.810Z,101622.53
2022-08-20T15:50:39.281Z,101626.09
2022-08-20T15:53:11.786Z,101633.78
2022-08-20T15:55:44.035Z,101628.53
2022-08-20T15:58:19.273Z,101637.88
2022-08-20T16:00:54.801Z,101645.28
2022-08-20T16:03:40.343Z,101639.81
2022-08-20T16:06:15.211Z,101644.75
2022-08-20T16:09:04.120Z,101639.56
2022-08-20T16:11:45.459Z,101640.38
2022-08-20T16:14:18.214Z,101638.75
2022-08-20T16:16:49.659Z,101630.56
2022-08-20T16:19:23.039Z,101639.59
2022-08-20T16:21:51.596Z,101638.25
2022-08-20T16:24:20.314Z,101643.72
2022-08-20T16:27:02.935Z,101647.56
2022-08-20T16:29:45.765Z,101649.25
2022-08-20T16:32:26.752Z,101654.47
2022-08-20T16:35:00.250Z,101648.16
2022-08-20T16:37:37.143Z,101652.81
2022-08-20T16:40:19.466Z,101638.56
2022-08-20T16:42:51.136Z,101651.19
2022-08-20T16:45:25.447Z,101655.56
2022-08-20T16:47:55.486Z,101655.56
2022-08-20T16:50:27.021Z,101655.56
2022-08-20T16:52:54.930Z,101658.59
2022-08-20T16:55:24.841Z,101656.66
2022-08-20T16:57:53.399Z,101658.88
2022-08-20T17:00:25.544Z,101648.47
2022-08-20T17:02:56.441Z,101649.28
2022-08-20T17:05:26.903Z,101654.78
2022-08-20T17:08:01.575Z,101655.06
2022-08-20T17:10:31.661Z,101658.09
2022-08-20T17:13:03.661Z,101655.34
2022-08-20T17:15:36.094Z,101657.00
2022-08-20T17:18:21.257Z,101657.28
2022-08-20T17:20:48.946Z,101661.66
2022-08-20T17:23:18.411Z,101660.56
2022-08-20T17:25:54.990Z,101667.13
2022-08-20T17:28:24.082Z,101667.94
2022-08-20T17:30:55.661Z,101663.84
2022-08-20T17:33:29.055Z,101656.22
2022-08-20T17:36:00.657Z,101663.91
2022-08-20T17:38:34.551Z,101664.72
2022-08-20T17:41:08.159Z,101665.00
2022-08-20T17:43:36.067Z,101665.28
2022-08-20T17:46:17.321Z,101663.09
2022-08-20T17:48:46.923Z,101658.47
2022-08-20T17:51:17.749Z,101661.75
2022-08-20T17:53:52.009Z,101662.84
2022-08-20T17:56:23.402Z,101660.13
2022-08-20T17:58:56.529Z,101664.50
2022-08-20T18:01:27.330Z,101672.72
2022-08-20T18:03:55.125Z,101662.56
2022-08-20T18:06:31.643Z,101662.03
2022-08-20T18:09:12.021Z,101665.06
2022-08-20T18:11:45.607Z,101666.41
2022-08-20T18:14:32.831Z,101660.44
2022-08-20T18:17:15.211Z,101679.59
2022-08-20T18:20:19.371Z,101665.06
2022-08-20T18:22:54.293Z,101679.06
2022-08-20T18:25:36.591Z,101677.41
2022-08-20T18:28:10.118Z,101679.34
2022-08-20T18:30:48.836Z,101684.00
2022-08-20T18:33:27.324Z,101686.19
2022-08-20T18:36:09.173Z,101685.38
2022-08-20T18:38:41.860Z,101682.91
2022-08-20T18:41:12.813Z,101686.22
2022-08-20T18:43:42.014Z,101692.28
2022-08-20T18:46:12.671Z,101682.94
2022-08-20T18:48:51.756Z,101686.78
2022-08-20T18:51:21.975Z,101682.72
2022-08-20T18:53:51.103Z,101681.88
2022-08-20T18:56:31.490Z,101682.97
2022-08-20T18:59:02.224Z,101679.69
2022-08-20T19:01:32.847Z,101683.25
2022-08-20T19:04:01.933Z,101680.81
2022-08-20T19:06:37.497Z,101696.41
2022-08-20T19:09:12.370Z,101688.50
2022-08-20T19:12:05.898Z,101688.78
2022-08-20T19:14:49.621Z,101691.81
2022-08-20T19:17:24.234Z,101689.34
2022-08-20T19:20:01.556Z,101682.53
2022-08-20T19:22:30.082Z,101688.28
2022-08-20T19:24:59.277Z,101691.31
2022-08-20T19:27:29.237Z,101695.13
2022-08-20T19:29:57.850Z,101694.59
2022-08-20T19:32:28.237Z,101691.03
2022-08-20T19:34:58.131Z,101696.53
2022-08-20T19:37:38.600Z,101695.16
2022-08-20T19:40:21.942Z,101697.63
2022-08-20T19:42:52.787Z,101694.06
2022-08-20T19:45:27.735Z,101700.94
2022-08-20T19:48:07.975Z,101701.22
2022-08-20T19:50:42.574Z,101707.78
2022-08-20T19:53:29.912Z,101697.13
2022-08-20T19:56:01.557Z,101704.22
2022-08-20T19:58:31.142Z,101704.50
2022-08-20T20:00:59.445Z,101697.41
2022-08-20T20:03:30.195Z,101698.50
2022-08-20T20:06:02.602Z,101707.81
2022-08-20T20:08:39.991Z,101706.16
2022-08-20T20:11:10.234Z,101700.69
2022-08-20T20:13:39.697Z,101704.53
2022-08-20T20:16:08.427Z,101702.06
2022-08-20T20:18:40.330Z,101700.44
2022-08-20T20:21:14.578Z,101704.25
2022-08-20T20:23:53.110Z,101703.44
2022-08-20T20:26:21.123Z,101702.09
2022-08-20T20:28:51.272Z,101704.81
2022-08-20T20:31:24.845Z,101703.19
2022-08-20T20:33:55.614Z,101704.28
2022-08-20T20:36:35.168Z,101709.22
2022-08-20T20:39:11.243Z,101706.75
2022-08-20T20:41:53.288Z,101702.38
2022-08-20T20:44:26.565Z,101703.47
2022-08-20T20:46:57.285Z,101695.53
2022-08-20T20:49:27.663Z,101696.91
2022-08-20T20:52:01.493Z,101697.97
2022-08-20T20:54:41.324Z,101693.88
2022-08-20T20:57:10.699Z,101685.94
2022-08-20T20:59:38.537Z,101693.63
2022-08-20T21:02:06.379Z,101684.88
2022-08-20T21:04:34.527Z,101688.69
2022-08-20T21:07:07.750Z,101678.31
2022-08-20T21:09:38.386Z,101685.69
2022-08-20T21:12:07.433Z,101678.31
2022-08-20T21:14:35.573Z,101679.13
2022-08-20T21:17:06.748Z,101685.72
2022-08-20T21:19:35.118Z,101688.72
2022-08-20T21:22:12.777Z,101694.47
2022-08-20T21:24:41.870Z,101692.81
2022-08-20T21:27:10.261Z,101696.94
2022-08-20T21:29:40.610Z,101692.56
2022-08-20T21:32:08.899Z,101689.28
2022-08-20T21:34:40.401Z,101688.47
2022-08-20T21:37:08.122Z,101687.91
2022-08-20T21:39:35.925Z,101697.22
2022-08-20T21:42:16.080Z,101690.38
2022-08-20T21:44:57.581Z,101688.75
2022-08-20T21:47:25.761Z,101690.94
2022-08-20T21:49:53.509Z,101688.47
2022-08-20T21:52:21.471Z,101688.75
2022-08-20T21:54:49.198Z,101680.81
2022-08-20T21:57:21.220Z,101686.56
2022-08-20T21:59:50.194Z,101689.28
2022-08-20T22:02:18.922Z,101689.56
2022-08-20T22:04:46.998Z,101688.75
2022-08-20T22:07:17.090Z,101689.03
2022-08-20T22:09:45.003Z,101681.38
2022-08-20T22:12:18.060Z,101685.75
2022-08-20T22:14:48.121Z,101686.03
2022-08-20T22:17:16.536Z,101687.94
2022-08-20T22:19:44.791Z,101684.94
2022-08-20T22:22:14.554Z,101685.75
2022-08-20T22:24:43.046Z,101678.63
2022-08-20T22:27:10.720Z,101680.56
2022-08-20T22:29:38.529Z,101672.91
2022-08-20T22:32:07.875Z,101674.81
2022-08-20T22:34:36.878Z,101678.38
2022-08-20T22:37:05.111Z,101681.38
2022-08-20T22:39:32.878Z,101675.34
2022-08-20T22:42:00.705Z,101671.25
2022-08-20T22:44:28.452Z,101667.97
2022-08-20T22:46:59.866Z,101672.63
2022-08-20T22:49:31.841Z,101668.53
2022-08-20T22:51:59.754Z,101662.22
2022-08-20T22:54:27.849Z,101653.22
2022-08-20T22:56:56.189Z,101654.56
2022-08-20T22:59:24.454Z,101656.75
2022-08-20T23:01:53.214Z,101656.22
2022-08-20T23:04:33.370Z,101646.06
2022-08-20T23:07:02.347Z,101661.97
2022-08-20T23:09:30.677Z,101662.22
2022-08-20T23:11:59.049Z,101658.91
2022-08-20T23:14:27.449Z,101652.09
2022-08-20T23:17:01.241Z,101654.00
2022-08-20T23:19:28.915Z,101647.97
2022-08-20T23:21:58.003Z,101648.25
2022-08-20T23:24:26.532Z,101649.34
2022-08-20T23:26:54.303Z,101645.25
2022-08-20T23:29:25.727Z,101642.50
2022-08-20T23:31:54.567Z,101645.53
2022-08-20T23:34:22.301Z,101645.78
2022-08-20T23:36:52.270Z,101643.34
2022-08-20T23:39:21.484Z,101644.69
2022-08-20T23:41:49.169Z,101646.59
2022-08-20T23:44:25.441Z,101643.06
2022-08-20T23:46:55.517Z,101642.78
2022-08-20T23:49:23.235Z,101640.31
2022-08-20T23:51:50.921Z,101639.50
2022-08-20T23:54:18.657Z,101645.22
2022-08-20T23:56:47.724Z,101648.25
2022-08-20T23:59:15.489Z,101636.75
